Benchley, Texas
Current Conditions -  °F | °C
As of 2:53 AM on Friday 28 Nov 2014 (Local Time) from KCLL Reporting Station
Clear Clear  
Wind Chill: 43°   Ceiling: Unl
Heat Index: 43°   Visibility: 10mi
Dew Point: 34°   Wind: 3mph
Humidity: 71%   Direction: 90°E
Pressure: 30.37"   Gusts: NA
Location:  30.6361°N, 96.3666°W
Report Text: KCLL 280853Z AUTO 09003KT 10SM CLR 06/01 A3037 RMK AO2 SLP282 T00610011 55007
Loading
Personal Weather Stations






























Interactive Weather Map New forecast layout! Learn more

10-Day Weather Forecast

Advertisements
Track Severe Weather on mobile